sensor_id;sensor_type;location;lat;lon;timestamp;temperature;humidity
13856;DHT22;6998;53.608;9.958;2022-09-03T00:00:51;15.50;99.90
13856;DHT22;6998;53.608;9.958;2022-09-03T00:03:23;15.50;99.90
13856;DHT22;6998;53.608;9.958;2022-09-03T00:05:59;15.40;99.90
13856;DHT22;6998;53.608;9.958;2022-09-03T00:08:32;15.40;99.90
13856;DHT22;6998;53.608;9.958;2022-09-03T00:11:05;15.30;99.90
13856;DHT22;6998;53.608;9.958;2022-09-03T00:13:41;15.30;99.90
13856;DHT22;6998;53.608;9.958;2022-09-03T00:16:11;15.30;99.90
13856;DHT22;6998;53.608;9.958;2022-09-03T00:18:43;15.20;99.90
13856;DHT22;6998;53.608;9.958;2022-09-03T00:21:11;15.30;99.90
13856;DHT22;6998;53.608;9.958;2022-09-03T00:23:41;15.20;99.90
13856;DHT22;6998;53.608;9.958;2022-09-03T00:26:17;15.20;99.90
13856;DHT22;6998;53.608;9.958;2022-09-03T00:28:51;15.10;99.90
13856;DHT22;6998;53.608;9.958;2022-09-03T00:31:24;15.00;99.90
13856;DHT22;6998;53.608;9.958;2022-09-03T00:33:55;14.90;99.90
13856;DHT22;6998;53.608;9.958;2022-09-03T00:36:28;15.00;99.90
13856;DHT22;6998;53.608;9.958;2022-09-03T00:38:59;14.90;99.90
13856;DHT22;6998;53.608;9.958;2022-09-03T00:41:31;14.90;99.90
13856;DHT22;6998;53.608;9.958;2022-09-03T00:44:13;14.80;99.90
13856;DHT22;6998;53.608;9.958;2022-09-03T00:46:48;14.80;99.90
13856;DHT22;6998;53.608;9.958;2022-09-03T00:49:27;14.80;99.90
13856;DHT22;6998;53.608;9.958;2022-09-03T00:52:06;14.80;99.90
13856;DHT22;6998;53.608;9.958;2022-09-03T00:54:44;14.70;99.90
13856;DHT22;6998;53.608;9.958;2022-09-03T00:57:34;14.60;99.90
13856;DHT22;6998;53.608;9.958;2022-09-03T01:00:07;14.60;99.90
13856;DHT22;6998;53.608;9.958;2022-09-03T01:02:43;14.60;99.90
13856;DHT22;6998;53.608;9.958;2022-09-03T01:05:25;14.50;99.90
13856;DHT22;6998;53.608;9.958;2022-09-03T01:08:01;14.60;99.90
13856;DHT22;6998;53.608;9.958;2022-09-03T01:10:37;14.50;99.90
13856;DHT22;6998;53.608;9.958;2022-09-03T01:13:12;14.50;99.90
13856;DHT22;6998;53.608;9.958;2022-09-03T01:15:44;14.40;99.90
13856;DHT22;6998;53.608;9.958;2022-09-03T01:18:21;14.40;99.90
13856;DHT22;6998;53.608;9.958;2022-09-03T01:20:57;14.40;99.90
13856;DHT22;6998;53.608;9.958;2022-09-03T01:24:01;14.40;99.90
13856;DHT22;6998;53.608;9.958;2022-09-03T01:26:47;14.40;99.90
13856;DHT22;6998;53.608;9.958;2022-09-03T01:29:22;14.40;99.90
13856;DHT22;6998;53.608;9.958;2022-09-03T01:31:59;14.40;99.90
13856;DHT22;6998;53.608;9.958;2022-09-03T01:34:37;14.30;99.90
13856;DHT22;6998;53.608;9.958;2022-09-03T01:37:13;14.30;99.90
13856;DHT22;6998;53.608;9.958;2022-09-03T01:39:51;14.20;99.90
13856;DHT22;6998;53.608;9.958;2022-09-03T01:42:28;14.20;99.90
13856;DHT22;6998;53.608;9.958;2022-09-03T01:45:16;14.20;99.90
13856;DHT22;6998;53.608;9.958;2022-09-03T01:47:55;14.20;99.90
13856;DHT22;6998;53.608;9.958;2022-09-03T01:50:32;14.20;99.90
13856;DHT22;6998;53.608;9.958;2022-09-03T01:53:06;14.10;99.90
13856;DHT22;6998;53.608;9.958;2022-09-03T01:55:43;14.10;99.90
13856;DHT22;6998;53.608;9.958;2022-09-03T01:58:18;14.10;99.90
13856;DHT22;6998;53.608;9.958;2022-09-03T02:00:52;14.20;99.90
13856;DHT22;6998;53.608;9.958;2022-09-03T02:03:22;14.20;99.90
13856;DHT22;6998;53.608;9.958;2022-09-03T02:05:49;14.10;99.90
13856;DHT22;6998;53.608;9.958;2022-09-03T02:08:17;14.10;99.90
13856;DHT22;6998;53.608;9.958;2022-09-03T02:10:47;14.00;99.90
13856;DHT22;6998;53.608;9.958;2022-09-03T02:13:16;14.00;99.90
13856;DHT22;6998;53.608;9.958;2022-09-03T02:15:45;14.00;99.90
13856;DHT22;6998;53.608;9.958;2022-09-03T02:18:16;14.00;99.90
13856;DHT22;6998;53.608;9.958;2022-09-03T02:20:46;13.90;99.90
13856;DHT22;6998;53.608;9.958;2022-09-03T02:23:14;13.80;99.90
13856;DHT22;6998;53.608;9.958;2022-09-03T02:25:44;13.70;99.90
13856;DHT22;6998;53.608;9.958;2022-09-03T02:28:13;13.70;99.90
13856;DHT22;6998;53.608;9.958;2022-09-03T02:30:40;13.70;99.90
13856;DHT22;6998;53.608;9.958;2022-09-03T02:33:08;13.70;99.90
13856;DHT22;6998;53.608;9.958;2022-09-03T02:35:36;13.70;99.90
13856;DHT22;6998;53.608;9.958;2022-09-03T02:38:10;13.70;99.90
13856;DHT22;6998;53.608;9.958;2022-09-03T02:40:37;13.70;99.90
13856;DHT22;6998;53.608;9.958;2022-09-03T02:43:10;13.70;99.90
13856;DHT22;6998;53.608;9.958;2022-09-03T02:45:41;13.70;99.90
13856;DHT22;6998;53.608;9.958;2022-09-03T02:48:12;13.70;99.90
13856;DHT22;6998;53.608;9.958;2022-09-03T02:50:41;13.70;99.90
13856;DHT22;6998;53.608;9.958;2022-09-03T02:53:08;13.60;99.90
13856;DHT22;6998;53.608;9.958;2022-09-03T02:55:35;13.60;99.90
13856;DHT22;6998;53.608;9.958;2022-09-03T02:58:02;13.50;99.90
13856;DHT22;6998;53.608;9.958;2022-09-03T03:00:30;13.50;99.90
13856;DHT22;6998;53.608;9.958;2022-09-03T03:02:57;13.40;99.90
13856;DHT22;6998;53.608;9.958;2022-09-03T03:05:29;13.40;99.90
13856;DHT22;6998;53.608;9.958;2022-09-03T03:07:59;13.40;99.90
13856;DHT22;6998;53.608;9.958;2022-09-03T03:10:26;13.30;99.90
13856;DHT22;6998;53.608;9.958;2022-09-03T03:12:53;13.30;99.90
13856;DHT22;6998;53.608;9.958;2022-09-03T03:15:20;13.30;99.90
13856;DHT22;6998;53.608;9.958;2022-09-03T03:17:46;13.20;99.90
13856;DHT22;6998;53.608;9.958;2022-09-03T03:20:13;13.20;99.90
13856;DHT22;6998;53.608;9.958;2022-09-03T03:22:40;13.10;99.90
13856;DHT22;6998;53.608;9.958;2022-09-03T03:25:08;13.20;99.90
13856;DHT22;6998;53.608;9.958;2022-09-03T03:27:35;13.20;99.90
13856;DHT22;6998;53.608;9.958;2022-09-03T03:30:07;13.10;99.90
13856;DHT22;6998;53.608;9.958;2022-09-03T03:32:35;13.10;99.90
13856;DHT22;6998;53.608;9.958;2022-09-03T03:35:02;13.00;99.90
13856;DHT22;6998;53.608;9.958;2022-09-03T03:37:30;13.20;99.90
13856;DHT22;6998;53.608;9.958;2022-09-03T03:39:57;13.20;99.90
13856;DHT22;6998;53.608;9.958;2022-09-03T03:42:25;13.10;99.90
13856;DHT22;6998;53.608;9.958;2022-09-03T03:44:52;13.10;99.90
13856;DHT22;6998;53.608;9.958;2022-09-03T03:47:19;13.00;99.90
13856;DHT22;6998;53.608;9.958;2022-09-03T03:49:45;12.90;99.90
13856;DHT22;6998;53.608;9.958;2022-09-03T03:52:12;12.90;99.90
13856;DHT22;6998;53.608;9.958;2022-09-03T03:54:39;12.80;99.90
13856;DHT22;6998;53.608;9.958;2022-09-03T03:57:06;12.80;99.90
13856;DHT22;6998;53.608;9.958;2022-09-03T03:59:34;12.70;99.90
13856;DHT22;6998;53.608;9.958;2022-09-03T04:02:00;12.70;99.90
13856;DHT22;6998;53.608;9.958;2022-09-03T04:04:27;12.70;99.90
13856;DHT22;6998;53.608;9.958;2022-09-03T04:06:54;12.70;99.90
13856;DHT22;6998;53.608;9.958;2022-09-03T04:09:21;12.60;99.90
13856;DHT22;6998;53.608;9.958;2022-09-03T04:11:47;12.60;99.90
13856;DHT22;6998;53.608;9.958;2022-09-03T04:14:15;12.60;99.90
13856;DHT22;6998;53.608;9.958;2022-09-03T04:16:44;12.50;99.90
13856;DHT22;6998;53.608;9.958;2022-09-03T04:19:11;12.50;99.90
13856;DHT22;6998;53.608;9.958;2022-09-03T04:21:38;12.50;99.90
13856;DHT22;6998;53.608;9.958;2022-09-03T04:24:05;12.50;99.90
13856;DHT22;6998;53.608;9.958;2022-09-03T04:26:33;12.50;99.90
13856;DHT22;6998;53.608;9.958;2022-09-03T04:29:02;12.40;99.90
13856;DHT22;6998;53.608;9.958;2022-09-03T04:31:30;12.40;99.90
13856;DHT22;6998;53.608;9.958;2022-09-03T04:33:58;12.40;99.90
13856;DHT22;6998;53.608;9.958;2022-09-03T04:36:25;12.40;99.90
13856;DHT22;6998;53.608;9.958;2022-09-03T04:38:54;12.40;99.90
13856;DHT22;6998;53.608;9.958;2022-09-03T04:41:22;12.40;99.90
13856;DHT22;6998;53.608;9.958;2022-09-03T04:43:50;12.40;99.90
13856;DHT22;6998;53.608;9.958;2022-09-03T04:46:18;12.40;99.90
13856;DHT22;6998;53.608;9.958;2022-09-03T04:48:47;12.40;99.90
13856;DHT22;6998;53.608;9.958;2022-09-03T04:51:17;12.40;99.90
13856;DHT22;6998;53.608;9.958;2022-09-03T04:53:45;12.40;99.90
13856;DHT22;6998;53.608;9.958;2022-09-03T04:56:13;12.40;99.90
13856;DHT22;6998;53.608;9.958;2022-09-03T04:58:40;12.40;99.90
13856;DHT22;6998;53.608;9.958;2022-09-03T05:01:09;12.40;99.90
13856;DHT22;6998;53.608;9.958;2022-09-03T05:03:36;12.50;99.90
13856;DHT22;6998;53.608;9.958;2022-09-03T05:06:04;12.60;99.90
13856;DHT22;6998;53.608;9.958;2022-09-03T05:08:33;12.50;99.90
13856;DHT22;6998;53.608;9.958;2022-09-03T05:11:02;12.60;99.90
13856;DHT22;6998;53.608;9.958;2022-09-03T05:13:29;12.60;99.90
13856;DHT22;6998;53.608;9.958;2022-09-03T05:15:58;12.70;99.90
13856;DHT22;6998;53.608;9.958;2022-09-03T05:18:26;12.70;99.90
13856;DHT22;6998;53.608;9.958;2022-09-03T05:20:57;12.70;99.90
13856;DHT22;6998;53.608;9.958;2022-09-03T05:23:24;12.70;99.90
13856;DHT22;6998;53.608;9.958;2022-09-03T05:25:55;12.80;99.90
13856;DHT22;6998;53.608;9.958;2022-09-03T05:28:24;12.90;99.90
13856;DHT22;6998;53.608;9.958;2022-09-03T05:30:58;12.90;99.90
13856;DHT22;6998;53.608;9.958;2022-09-03T05:33:25;12.90;99.90
13856;DHT22;6998;53.608;9.958;2022-09-03T05:35:52;12.90;99.90
13856;DHT22;6998;53.608;9.958;2022-09-03T05:38:19;13.00;99.90
13856;DHT22;6998;53.608;9.958;2022-09-03T05:40:46;13.10;99.90
13856;DHT22;6998;53.608;9.958;2022-09-03T05:43:14;13.10;99.90
13856;DHT22;6998;53.608;9.958;2022-09-03T05:45:41;13.20;99.90
13856;DHT22;6998;53.608;9.958;2022-09-03T05:48:08;13.20;99.90
13856;DHT22;6998;53.608;9.958;2022-09-03T05:50:35;13.30;99.90
13856;DHT22;6998;53.608;9.958;2022-09-03T05:53:01;13.30;99.90
13856;DHT22;6998;53.608;9.958;2022-09-03T05:55:28;13.50;99.90
13856;DHT22;6998;53.608;9.958;2022-09-03T05:57:55;13.60;99.90
13856;DHT22;6998;53.608;9.958;2022-09-03T06:00:25;13.60;99.90
13856;DHT22;6998;53.608;9.958;2022-09-03T06:02:52;13.70;99.90
13856;DHT22;6998;53.608;9.958;2022-09-03T06:05:24;13.70;99.90
13856;DHT22;6998;53.608;9.958;2022-09-03T06:07:51;13.80;99.90
13856;DHT22;6998;53.608;9.958;2022-09-03T06:10:18;13.90;99.90
13856;DHT22;6998;53.608;9.958;2022-09-03T06:12:44;14.00;99.90
13856;DHT22;6998;53.608;9.958;2022-09-03T06:15:16;14.00;99.90
13856;DHT22;6998;53.608;9.958;2022-09-03T06:17:44;14.00;99.90
13856;DHT22;6998;53.608;9.958;2022-09-03T06:20:11;14.20;99.90
13856;DHT22;6998;53.608;9.958;2022-09-03T06:22:37;14.20;99.90
13856;DHT22;6998;53.608;9.958;2022-09-03T06:25:05;14.30;99.90
13856;DHT22;6998;53.608;9.958;2022-09-03T06:27:32;14.30;99.90
13856;DHT22;6998;53.608;9.958;2022-09-03T06:29:58;14.40;99.90
13856;DHT22;6998;53.608;9.958;2022-09-03T06:32:25;14.50;99.90
13856;DHT22;6998;53.608;9.958;2022-09-03T06:34:55;14.50;99.90
13856;DHT22;6998;53.608;9.958;2022-09-03T06:37:21;14.60;99.90
13856;DHT22;6998;53.608;9.958;2022-09-03T06:39:48;14.70;99.90
13856;DHT22;6998;53.608;9.958;2022-09-03T06:42:16;14.70;99.90
13856;DHT22;6998;53.608;9.958;2022-09-03T06:44:42;14.80;99.90
13856;DHT22;6998;53.608;9.958;2022-09-03T06:47:10;14.90;99.90
13856;DHT22;6998;53.608;9.958;2022-09-03T06:49:36;15.00;99.90
13856;DHT22;6998;53.608;9.958;2022-09-03T06:52:05;15.00;99.90
13856;DHT22;6998;53.608;9.958;2022-09-03T06:54:31;14.90;99.90
13856;DHT22;6998;53.608;9.958;2022-09-03T06:56:58;15.00;99.90
13856;DHT22;6998;53.608;9.958;2022-09-03T06:59:25;15.00;99.90
13856;DHT22;6998;53.608;9.958;2022-09-03T07:01:52;15.20;99.90
13856;DHT22;6998;53.608;9.958;2022-09-03T07:04:19;15.30;99.90
13856;DHT22;6998;53.608;9.958;2022-09-03T07:06:47;15.40;99.90
13856;DHT22;6998;53.608;9.958;2022-09-03T07:09:16;15.50;99.90
13856;DHT22;6998;53.608;9.958;2022-09-03T07:11:43;15.50;99.90
13856;DHT22;6998;53.608;9.958;2022-09-03T07:14:12;15.60;99.90
13856;DHT22;6998;53.608;9.958;2022-09-03T07:16:39;15.70;99.90
13856;DHT22;6998;53.608;9.958;2022-09-03T07:19:07;15.80;99.90
13856;DHT22;6998;53.608;9.958;2022-09-03T07:21:35;15.90;99.90
13856;DHT22;6998;53.608;9.958;2022-09-03T07:24:03;15.90;99.90
13856;DHT22;6998;53.608;9.958;2022-09-03T07:26:33;15.90;99.90
13856;DHT22;6998;53.608;9.958;2022-09-03T07:29:00;16.00;99.90
13856;DHT22;6998;53.608;9.958;2022-09-03T07:31:29;16.10;99.90
13856;DHT22;6998;53.608;9.958;2022-09-03T07:33:57;16.20;99.90
13856;DHT22;6998;53.608;9.958;2022-09-03T07:36:25;16.30;99.90
13856;DHT22;6998;53.608;9.958;2022-09-03T07:38:54;16.40;99.90
13856;DHT22;6998;53.608;9.958;2022-09-03T07:41:21;16.50;99.90
13856;DHT22;6998;53.608;9.958;2022-09-03T07:43:50;16.60;99.90
13856;DHT22;6998;53.608;9.958;2022-09-03T07:46:18;16.70;99.90
13856;DHT22;6998;53.608;9.958;2022-09-03T07:48:47;16.80;99.90
13856;DHT22;6998;53.608;9.958;2022-09-03T07:51:15;16.90;99.90
13856;DHT22;6998;53.608;9.958;2022-09-03T07:53:43;16.90;99.90
13856;DHT22;6998;53.608;9.958;2022-09-03T07:56:10;17.10;99.90
13856;DHT22;6998;53.608;9.958;2022-09-03T07:58:38;17.20;99.90
13856;DHT22;6998;53.608;9.958;2022-09-03T08:01:08;17.30;99.90
13856;DHT22;6998;53.608;9.958;2022-09-03T08:03:35;17.30;99.90
13856;DHT22;6998;53.608;9.958;2022-09-03T08:06:03;17.40;99.90
13856;DHT22;6998;53.608;9.958;2022-09-03T08:08:31;17.50;99.90
13856;DHT22;6998;53.608;9.958;2022-09-03T08:11:03;17.70;99.90
13856;DHT22;6998;53.608;9.958;2022-09-03T08:13:36;17.80;99.90
13856;DHT22;6998;53.608;9.958;2022-09-03T08:16:02;17.80;99.90
13856;DHT22;6998;53.608;9.958;2022-09-03T08:18:32;17.90;99.90
13856;DHT22;6998;53.608;9.958;2022-09-03T08:21:03;18.10;99.90
13856;DHT22;6998;53.608;9.958;2022-09-03T08:23:32;18.10;99.90
13856;DHT22;6998;53.608;9.958;2022-09-03T08:25:59;18.20;99.90
13856;DHT22;6998;53.608;9.958;2022-09-03T08:28:26;18.30;99.90
13856;DHT22;6998;53.608;9.958;2022-09-03T08:30:53;18.40;99.90
13856;DHT22;6998;53.608;9.958;2022-09-03T08:33:20;18.50;99.90
13856;DHT22;6998;53.608;9.958;2022-09-03T08:36:04;18.70;99.90
13856;DHT22;6998;53.608;9.958;2022-09-03T08:38:31;18.90;99.90
13856;DHT22;6998;53.608;9.958;2022-09-03T08:41:06;19.10;99.90
13856;DHT22;6998;53.608;9.958;2022-09-03T08:43:44;19.10;99.90
13856;DHT22;6998;53.608;9.958;2022-09-03T08:46:16;19.30;99.90
13856;DHT22;6998;53.608;9.958;2022-09-03T08:48:44;19.50;99.90
13856;DHT22;6998;53.608;9.958;2022-09-03T08:51:14;19.60;99.90
13856;DHT22;6998;53.608;9.958;2022-09-03T08:53:46;19.70;99.90
13856;DHT22;6998;53.608;9.958;2022-09-03T08:56:23;19.90;99.90
13856;DHT22;6998;53.608;9.958;2022-09-03T08:58:51;20.00;99.90
13856;DHT22;6998;53.608;9.958;2022-09-03T09:01:34;20.20;99.90
13856;DHT22;6998;53.608;9.958;2022-09-03T09:04:23;20.50;99.90
13856;DHT22;6998;53.608;9.958;2022-09-03T09:06:57;20.80;99.90
13856;DHT22;6998;53.608;9.958;2022-09-03T09:09:31;20.80;99.90
13856;DHT22;6998;53.608;9.958;2022-09-03T09:12:09;21.00;99.90
13856;DHT22;6998;53.608;9.958;2022-09-03T09:14:45;20.90;99.90
13856;DHT22;6998;53.608;9.958;2022-09-03T09:17:26;21.00;99.90
13856;DHT22;6998;53.608;9.958;2022-09-03T09:20:04;21.00;99.90
13856;DHT22;6998;53.608;9.958;2022-09-03T09:22:36;21.10;99.90
13856;DHT22;6998;53.608;9.958;2022-09-03T09:25:08;21.20;99.90
13856;DHT22;6998;53.608;9.958;2022-09-03T09:27:43;21.50;99.90
13856;DHT22;6998;53.608;9.958;2022-09-03T09:30:13;21.70;99.90
13856;DHT22;6998;53.608;9.958;2022-09-03T09:32:42;21.90;99.90
13856;DHT22;6998;53.608;9.958;2022-09-03T09:35:09;21.80;99.90
13856;DHT22;6998;53.608;9.958;2022-09-03T09:37:50;21.70;99.90
13856;DHT22;6998;53.608;9.958;2022-09-03T09:40:26;21.70;99.90
13856;DHT22;6998;53.608;9.958;2022-09-03T09:43:11;21.70;99.90
13856;DHT22;6998;53.608;9.958;2022-09-03T09:45:39;21.90;99.90
13856;DHT22;6998;53.608;9.958;2022-09-03T09:48:17;21.90;99.90
13856;DHT22;6998;53.608;9.958;2022-09-03T09:50:44;21.90;99.90
13856;DHT22;6998;53.608;9.958;2022-09-03T09:53:12;22.20;99.90
13856;DHT22;6998;53.608;9.958;2022-09-03T09:55:51;22.20;99.90
13856;DHT22;6998;53.608;9.958;2022-09-03T09:58:22;22.10;99.90
13856;DHT22;6998;53.608;9.958;2022-09-03T10:00:56;21.90;99.90
13856;DHT22;6998;53.608;9.958;2022-09-03T10:03:24;21.90;99.90
13856;DHT22;6998;53.608;9.958;2022-09-03T10:06:04;21.70;99.90
13856;DHT22;6998;53.608;9.958;2022-09-03T10:08:47;21.60;99.90
13856;DHT22;6998;53.608;9.958;2022-09-03T10:11:14;21.50;99.90
13856;DHT22;6998;53.608;9.958;2022-09-03T10:13:44;21.40;99.90
13856;DHT22;6998;53.608;9.958;2022-09-03T10:16:20;21.40;99.90
13856;DHT22;6998;53.608;9.958;2022-09-03T10:18:52;21.30;99.90
13856;DHT22;6998;53.608;9.958;2022-09-03T10:21:26;21.30;99.90
13856;DHT22;6998;53.608;9.958;2022-09-03T10:24:06;21.30;99.90
13856;DHT22;6998;53.608;9.958;2022-09-03T10:26:35;21.10;99.90
13856;DHT22;6998;53.608;9.958;2022-09-03T10:29:04;21.10;99.90
13856;DHT22;6998;53.608;9.958;2022-09-03T10:31:46;21.20;99.90
13856;DHT22;6998;53.608;9.958;2022-09-03T10:34:22;21.20;99.90
13856;DHT22;6998;53.608;9.958;2022-09-03T10:36:55;21.60;99.90
13856;DHT22;6998;53.608;9.958;2022-09-03T10:39:41;22.00;99.90
13856;DHT22;6998;53.608;9.958;2022-09-03T10:42:18;22.20;99.90
13856;DHT22;6998;53.608;9.958;2022-09-03T10:44:59;22.30;99.90
13856;DHT22;6998;53.608;9.958;2022-09-03T10:47:41;22.60;99.90
13856;DHT22;6998;53.608;9.958;2022-09-03T10:50:14;23.00;99.90
13856;DHT22;6998;53.608;9.958;2022-09-03T10:52:59;23.00;99.90
13856;DHT22;6998;53.608;9.958;2022-09-03T10:55:40;22.80;99.50
13856;DHT22;6998;53.608;9.958;2022-09-03T10:58:27;22.70;99.80
13856;DHT22;6998;53.608;9.958;2022-09-03T11:01:02;22.80;99.90
13856;DHT22;6998;53.608;9.958;2022-09-03T11:03:55;22.80;99.30
13856;DHT22;6998;53.608;9.958;2022-09-03T11:06:27;23.00;98.70
13856;DHT22;6998;53.608;9.958;2022-09-03T11:08:58;23.20;99.10
13856;DHT22;6998;53.608;9.958;2022-09-03T11:11:31;23.30;98.30
13856;DHT22;6998;53.608;9.958;2022-09-03T11:14:03;23.30;98.00
13856;DHT22;6998;53.608;9.958;2022-09-03T11:16:36;23.30;98.60
13856;DHT22;6998;53.608;9.958;2022-09-03T11:19:06;23.50;98.80
13856;DHT22;6998;53.608;9.958;2022-09-03T11:21:37;23.60;97.60
13856;DHT22;6998;53.608;9.958;2022-09-03T11:24:11;23.40;97.20
13856;DHT22;6998;53.608;9.958;2022-09-03T11:26:42;23.40;97.70
13856;DHT22;6998;53.608;9.958;2022-09-03T11:29:14;23.40;95.60
13856;DHT22;6998;53.608;9.958;2022-09-03T11:31:51;23.40;95.30
13856;DHT22;6998;53.608;9.958;2022-09-03T11:34:27;23.40;95.80
13856;DHT22;6998;53.608;9.958;2022-09-03T11:37:15;23.30;95.70
13856;DHT22;6998;53.608;9.958;2022-09-03T11:39:43;23.30;95.80
13856;DHT22;6998;53.608;9.958;2022-09-03T11:42:28;23.70;95.50
13856;DHT22;6998;53.608;9.958;2022-09-03T11:44:59;23.90;95.40
13856;DHT22;6998;53.608;9.958;2022-09-03T11:47:39;24.00;95.90
13856;DHT22;6998;53.608;9.958;2022-09-03T11:50:15;24.10;95.10
13856;DHT22;6998;53.608;9.958;2022-09-03T11:52:46;23.90;95.20
13856;DHT22;6998;53.608;9.958;2022-09-03T11:55:24;23.40;94.20
13856;DHT22;6998;53.608;9.958;2022-09-03T11:57:52;23.40;94.90
13856;DHT22;6998;53.608;9.958;2022-09-03T12:00:19;23.30;95.30
13856;DHT22;6998;53.608;9.958;2022-09-03T12:02:51;23.30;94.40
13856;DHT22;6998;53.608;9.958;2022-09-03T12:05:25;23.50;95.10
13856;DHT22;6998;53.608;9.958;2022-09-03T12:10:54;23.30;95.00
13856;DHT22;6998;53.608;9.958;2022-09-03T12:13:43;23.10;94.80
13856;DHT22;6998;53.608;9.958;2022-09-03T12:19:03;22.90;95.00
13856;DHT22;6998;53.608;9.958;2022-09-03T12:21:37;22.80;95.00
13856;DHT22;6998;53.608;9.958;2022-09-03T12:24:04;22.70;95.40
13856;DHT22;6998;53.608;9.958;2022-09-03T12:26:40;23.00;95.80
13856;DHT22;6998;53.608;9.958;2022-09-03T12:29:25;23.20;95.30
13856;DHT22;6998;53.608;9.958;2022-09-03T12:31:52;23.50;94.70
13856;DHT22;6998;53.608;9.958;2022-09-03T12:34:21;23.50;95.00
13856;DHT22;6998;53.608;9.958;2022-09-03T12:36:50;23.60;94.00
13856;DHT22;6998;53.608;9.958;2022-09-03T12:39:18;23.60;93.80
13856;DHT22;6998;53.608;9.958;2022-09-03T12:41:59;23.70;94.80
13856;DHT22;6998;53.608;9.958;2022-09-03T12:44:30;23.90;93.90
13856;DHT22;6998;53.608;9.958;2022-09-03T12:47:03;24.20;93.90
13856;DHT22;6998;53.608;9.958;2022-09-03T12:49:34;24.30;92.80
13856;DHT22;6998;53.608;9.958;2022-09-03T12:52:05;24.30;92.30
13856;DHT22;6998;53.608;9.958;2022-09-03T12:54:37;24.40;92.30
13856;DHT22;6998;53.608;9.958;2022-09-03T12:57:04;24.60;93.10
13856;DHT22;6998;53.608;9.958;2022-09-03T12:59:34;24.60;93.20
13856;DHT22;6998;53.608;9.958;2022-09-03T13:02:03;24.70;92.80
13856;DHT22;6998;53.608;9.958;2022-09-03T13:04:36;24.80;92.00
13856;DHT22;6998;53.608;9.958;2022-09-03T13:07:07;24.80;91.00
13856;DHT22;6998;53.608;9.958;2022-09-03T13:09:38;24.70;91.00
13856;DHT22;6998;53.608;9.958;2022-09-03T13:12:07;24.70;91.70
13856;DHT22;6998;53.608;9.958;2022-09-03T13:14:47;24.70;90.40
13856;DHT22;6998;53.608;9.958;2022-09-03T13:20:22;24.50;91.30
13856;DHT22;6998;53.608;9.958;2022-09-03T13:23:08;24.40;90.90
13856;DHT22;6998;53.608;9.958;2022-09-03T13:25:41;24.40;91.20
13856;DHT22;6998;53.608;9.958;2022-09-03T13:28:22;24.50;90.50
13856;DHT22;6998;53.608;9.958;2022-09-03T13:30:56;24.60;90.40
13856;DHT22;6998;53.608;9.958;2022-09-03T13:33:31;24.50;90.80
13856;DHT22;6998;53.608;9.958;2022-09-03T13:36:02;24.50;90.70
13856;DHT22;6998;53.608;9.958;2022-09-03T13:38:34;24.50;90.30
13856;DHT22;6998;53.608;9.958;2022-09-03T13:41:08;24.40;90.30
13856;DHT22;6998;53.608;9.958;2022-09-03T13:43:47;24.40;90.00
13856;DHT22;6998;53.608;9.958;2022-09-03T13:46:23;24.60;90.20
13856;DHT22;6998;53.608;9.958;2022-09-03T13:48:58;24.70;90.30
13856;DHT22;6998;53.608;9.958;2022-09-03T13:51:46;24.70;90.40
13856;DHT22;6998;53.608;9.958;2022-09-03T13:54:18;24.80;89.60
13856;DHT22;6998;53.608;9.958;2022-09-03T13:56:52;24.70;89.50
13856;DHT22;6998;53.608;9.958;2022-09-03T13:59:27;24.80;90.70
13856;DHT22;6998;53.608;9.958;2022-09-03T14:02:09;24.80;90.20
13856;DHT22;6998;53.608;9.958;2022-09-03T14:04:46;24.90;88.20
13856;DHT22;6998;53.608;9.958;2022-09-03T14:07:19;24.60;88.20
13856;DHT22;6998;53.608;9.958;2022-09-03T14:09:54;24.40;90.50
13856;DHT22;6998;53.608;9.958;2022-09-03T14:12:33;24.30;89.40
13856;DHT22;6998;53.608;9.958;2022-09-03T14:15:06;24.50;89.30
13856;DHT22;6998;53.608;9.958;2022-09-03T14:17:40;24.40;88.80
13856;DHT22;6998;53.608;9.958;2022-09-03T14:20:12;24.40;90.20
13856;DHT22;6998;53.608;9.958;2022-09-03T14:22:48;24.10;87.60
13856;DHT22;6998;53.608;9.958;2022-09-03T14:25:18;24.10;88.80
13856;DHT22;6998;53.608;9.958;2022-09-03T14:27:45;24.40;89.10
13856;DHT22;6998;53.608;9.958;2022-09-03T14:30:30;24.40;88.40
13856;DHT22;6998;53.608;9.958;2022-09-03T14:33:08;24.20;87.60
13856;DHT22;6998;53.608;9.958;2022-09-03T14:35:52;24.00;87.60
13856;DHT22;6998;53.608;9.958;2022-09-03T14:38:56;24.00;90.30
13856;DHT22;6998;53.608;9.958;2022-09-03T14:41:49;24.20;89.50
13856;DHT22;6998;53.608;9.958;2022-09-03T14:44:38;24.20;88.40
13856;DHT22;6998;53.608;9.958;2022-09-03T14:47:15;24.20;89.40
13856;DHT22;6998;53.608;9.958;2022-09-03T14:50:08;24.00;90.20
13856;DHT22;6998;53.608;9.958;2022-09-03T14:55:48;24.00;89.40
13856;DHT22;6998;53.608;9.958;2022-09-03T14:58:33;24.10;87.70
13856;DHT22;6998;53.608;9.958;2022-09-03T15:01:04;24.00;88.50
13856;DHT22;6998;53.608;9.958;2022-09-03T15:04:04;24.00;87.60
13856;DHT22;6998;53.608;9.958;2022-09-03T15:06:44;24.00;88.30
13856;DHT22;6998;53.608;9.958;2022-09-03T15:09:21;23.90;87.20
13856;DHT22;6998;53.608;9.958;2022-09-03T15:11:55;23.80;89.70
13856;DHT22;6998;53.608;9.958;2022-09-03T15:14:25;23.50;88.70
13856;DHT22;6998;53.608;9.958;2022-09-03T15:16:59;23.50;89.40
13856;DHT22;6998;53.608;9.958;2022-09-03T15:19:42;23.50;89.60
13856;DHT22;6998;53.608;9.958;2022-09-03T15:22:25;23.50;88.70
13856;DHT22;6998;53.608;9.958;2022-09-03T15:24:59;23.40;89.00
13856;DHT22;6998;53.608;9.958;2022-09-03T15:27:50;23.50;89.70
13856;DHT22;6998;53.608;9.958;2022-09-03T15:30:18;23.50;90.30
13856;DHT22;6998;53.608;9.958;2022-09-03T15:32:52;23.50;88.80
13856;DHT22;6998;53.608;9.958;2022-09-03T15:35:44;23.50;88.30
13856;DHT22;6998;53.608;9.958;2022-09-03T15:38:25;23.50;90.10
13856;DHT22;6998;53.608;9.958;2022-09-03T15:40:56;23.40;87.80
13856;DHT22;6998;53.608;9.958;2022-09-03T15:43:28;23.30;88.20
13856;DHT22;6998;53.608;9.958;2022-09-03T15:45:57;23.30;89.00
13856;DHT22;6998;53.608;9.958;2022-09-03T15:48:32;23.20;89.20
13856;DHT22;6998;53.608;9.958;2022-09-03T15:51:10;23.30;89.60
13856;DHT22;6998;53.608;9.958;2022-09-03T15:53:47;23.30;89.60
13856;DHT22;6998;53.608;9.958;2022-09-03T15:56:19;23.30;89.70
13856;DHT22;6998;53.608;9.958;2022-09-03T15:58:54;23.30;89.70
13856;DHT22;6998;53.608;9.958;2022-09-03T16:01:26;23.20;89.60
13856;DHT22;6998;53.608;9.958;2022-09-03T16:04:02;23.20;90.20
13856;DHT22;6998;53.608;9.958;2022-09-03T16:06:42;23.20;89.60
13856;DHT22;6998;53.608;9.958;2022-09-03T16:09:24;23.20;89.70
13856;DHT22;6998;53.608;9.958;2022-09-03T16:11:57;23.20;90.20
13856;DHT22;6998;53.608;9.958;2022-09-03T16:14:29;23.30;90.10
13856;DHT22;6998;53.608;9.958;2022-09-03T16:17:04;23.30;90.30
13856;DHT22;6998;53.608;9.958;2022-09-03T16:19:38;23.30;89.80
13856;DHT22;6998;53.608;9.958;2022-09-03T16:22:12;23.10;89.50
13856;DHT22;6998;53.608;9.958;2022-09-03T16:24:46;23.10;90.70
13856;DHT22;6998;53.608;9.958;2022-09-03T16:27:16;22.90;90.50
13856;DHT22;6998;53.608;9.958;2022-09-03T16:29:56;22.80;91.40